Time;durP1;ratioP1;P1;durP2;ratioP2;P2;SDS_P1;SDS_P2;PMS_P1;PMS_P2;Temp;Humidity;BMP_temperature;BMP_pressure;BME280_temperature;BME280_humidity;BME280_pressure;Samples;Min_cycle;Max_cycle;Signal;HPM_P1;HPM_P2
2021/04/14 00:00:33;;;;;;;73.62;45.88;;;;;;;6.89;100.00;99279.16;1817825;79;21564;-65
2021/04/14 00:03:01;;;;;;;70.72;41.83;;;;;;;6.88;100.00;99278.84;1817465;78;20975;-65
2021/04/14 00:05:32;;;;;;;;;;;;;;;6.85;100.00;99277.46;1820232;79;21066;-66
2021/04/14 00:08:00;;;;;;;65.25;39.00;;;;;;;6.82;100.00;99279.80;1784076;79;20486;-65
2021/04/14 00:10:31;;;;;;;68.75;43.65;;;;;;;6.80;100.00;99284.03;1817602;79;20998;-66
2021/04/14 00:13:00;;;;;;;73.02;46.02;;;;;;;6.78;100.00;99275.45;1817561;78;21364;-65
2021/04/14 00:15:39;;;;;;;67.35;42.95;;;;;;;6.78;100.00;99274.64;1798075;79;20924;-66
2021/04/14 00:18:07;;;;;;;75.05;45.70;;;;;;;6.78;100.00;99271.98;1785383;80;20959;-66
2021/04/14 00:20:37;;;;;;;68.80;44.20;;;;;;;6.78;100.00;99269.30;1785378;80;21534;-64
2021/04/14 00:23:06;;;;;;;81.22;47.70;;;;;;;6.79;100.00;99264.28;1785476;80;21453;-61
2021/04/14 00:25:39;;;;;;;77.03;47.60;;;;;;;6.81;100.00;99264.33;1753678;80;20923;-62
2021/04/14 00:28:07;;;;;;;76.80;48.10;;;;;;;6.80;100.00;99260.02;1785308;79;20916;-62
2021/04/14 00:30:35;;;;;;;78.05;45.95;;;;;;;6.81;100.00;99260.83;1785577;80;20880;-63
2021/04/14 00:33:03;;;;;;;68.25;42.48;;;;;;;6.81;100.00;99258.16;1785543;80;20971;-63
2021/04/14 00:35:31;;;;;;;74.63;42.40;;;;;;;6.82;100.00;99255.80;1785690;80;20998;-63
2021/04/14 00:38:00;;;;;;;76.82;44.67;;;;;;;6.83;100.00;99258.20;1785445;80;21667;-63
2021/04/14 00:40:35;;;;;;;84.85;45.98;;;;;;;6.85;100.00;99252.12;1785523;80;20923;-63
2021/04/14 00:43:12;;;;;;;75.47;42.75;;;;;;;6.85;100.00;99245.98;1785509;80;21469;-63
2021/04/14 00:45:40;;;;;;;64.47;41.18;;;;;;;6.87;100.00;99254.56;1745815;81;20935;-63
2021/04/14 00:48:10;;;;;;;69.30;42.20;;;;;;;6.85;100.00;99243.31;1746033;82;20919;-64
2021/04/14 00:50:38;;;;;;;69.58;41.80;;;;;;;6.84;100.00;99239.03;1745999;82;21375;-63
2021/04/14 00:53:08;;;;;;;67.00;40.03;;;;;;;6.84;100.00;99240.37;1745791;82;20907;-63
2021/04/14 00:55:37;;;;;;;71.37;40.52;;;;;;;6.82;100.00;99243.79;1734591;81;20927;-63
2021/04/14 00:58:11;;;;;;;66.45;41.58;;;;;;;6.80;100.00;99241.34;1733864;82;21080;-63
2021/04/14 01:00:47;;;;;;;68.47;42.38;;;;;;;6.78;100.00;99242.63;1733747;81;21007;-62
2021/04/14 01:03:20;;;;;;;68.12;42.70;;;;;;;6.75;100.00;99242.58;1733755;82;21578;-63
2021/04/14 01:05:51;;;;;;;67.65;43.23;;;;;;;6.73;100.00;99237.20;1733504;81;20907;-63
2021/04/14 01:08:20;;;;;;;67.35;42.83;;;;;;;6.73;100.00;99239.34;1733460;81;20939;-64
2021/04/14 01:10:49;;;;;;;71.35;43.28;;;;;;;6.73;100.00;99243.34;1762423;81;20877;-62
2021/04/14 01:13:17;;;;;;;69.50;42.78;;;;;;;6.73;100.00;99234.53;1769623;81;20908;-63
2021/04/14 01:15:48;;;;;;;67.67;40.67;;;;;;;6.72;100.00;99232.39;1769614;79;21203;-62
2021/04/14 01:18:23;;;;;;;69.05;42.58;;;;;;;6.72;100.00;99225.73;1769343;81;20926;-62
2021/04/14 01:20:52;;;;;;;64.65;39.63;;;;;;;6.72;100.00;99227.06;1738288;82;20939;-63
2021/04/14 01:23:23;;;;;;;67.10;41.15;;;;;;;6.74;100.00;99222.83;1738406;81;21568;-63
2021/04/14 01:25:51;;;;;;;65.83;40.95;;;;;;;6.76;100.00;99224.72;1738487;82;21078;-62
2021/04/14 01:28:28;;;;;;;66.95;42.62;;;;;;;6.74;100.00;99221.50;1738582;81;21385;-63
2021/04/14 01:30:58;;;;;;;71.85;42.78;;;;;;;6.74;100.00;99220.16;1696062;84;21101;-63
2021/04/14 01:33:29;;;;;;;65.15;41.77;;;;;;;6.73;100.00;99218.53;1696135;84;25319;-62
2021/04/14 01:36:00;;;;;;;69.75;42.88;;;;;;;6.73;100.00;99213.19;1667851;86;20991;-62
2021/04/14 01:38:29;;;;;;;70.57;43.98;;;;;;;6.73;100.00;99211.86;1667992;86;20954;-62
2021/04/14 01:40:58;;;;;;;68.10;43.95;;;;;;;6.72;100.00;99214.25;1668114;86;21272;-63
2021/04/14 01:43:26;;;;;;;;;;;;;;;6.72;100.00;99213.72;1670399;85;21144;-64
2021/04/14 01:45:53;;;;;;;67.67;41.67;;;;;;;6.71;100.00;99209.95;1687844;84;20292;-64
2021/04/14 01:48:21;;;;;;;69.82;43.65;;;;;;;6.69;100.00;99209.37;1694941;84;21080;-62
2021/04/14 01:50:49;;;;;;;72.80;45.23;;;;;;;6.68;100.00;99201.09;1695182;84;20891;-62
2021/04/14 01:53:19;;;;;;;73.50;46.28;;;;;;;6.67;100.00;99202.95;1695022;84;21360;-62
2021/04/14 01:55:49;;;;;;;72.58;42.03;;;;;;;6.65;100.00;99195.17;1690489;83;21103;-62
2021/04/14 01:58:18;;;;;;;77.78;47.53;;;;;;;6.64;100.00;99196.23;1690360;83;20907;-61
2021/04/14 02:00:55;;;;;;;81.92;47.23;;;;;;;6.62;100.00;99201.00;1690429;84;21101;-62
2021/04/14 02:03:33;;;;;;;73.85;44.63;;;;;;;6.63;100.00;99199.94;1842286;77;22699;-64
2021/04/14 02:06:02;;;;;;;72.22;46.00;;;;;;;6.58;100.00;99201.17;1817615;78;21026;-65
2021/04/14 02:08:30;;;;;;;78.85;45.83;;;;;;;6.57;100.00;99199.56;1750882;81;21892;-65
2021/04/14 02:11:00;;;;;;;79.27;48.00;;;;;;;6.57;100.00;99194.23;1781542;80;20916;-65
2021/04/14 02:13:31;;;;;;;82.40;48.00;;;;;;;6.56;100.00;99193.92;1750889;82;20880;-64
2021/04/14 02:15:59;;;;;;;77.55;47.17;;;;;;;6.56;100.00;99196.59;1716755;82;20933;-65
2021/04/14 02:18:27;;;;;;;75.55;46.13;;;;;;;6.56;100.00;99191.25;1735195;82;20995;-65
2021/04/14 02:20:56;;;;;;;83.90;49.55;;;;;;;6.56;100.00;99196.59;1590008;90;23521;-65
2021/04/14 02:23:28;;;;;;;;;;;;;;;6.57;100.00;99192.89;1592386;90;21166;-65
2021/04/14 02:25:57;;;;;;;82.80;49.20;;;;;;;6.58;100.00;99190.50;1589787;90;20143;-65
2021/04/14 02:28:25;;;;;;;78.12;46.83;;;;;;;6.61;100.00;99193.22;1590093;90;21060;-65
2021/04/14 02:30:53;;;;;;;80.05;47.83;;;;;;;6.61;100.00;99190.05;1590233;90;21017;-66
2021/04/14 02:33:21;;;;;;;79.22;46.58;;;;;;;6.62;100.00;99194.33;1590197;90;21434;-65
2021/04/14 02:35:50;;;;;;;80.10;48.45;;;;;;;6.62;100.00;99188.19;1590156;90;20989;-64
2021/04/14 02:38:19;;;;;;;75.65;46.75;;;;;;;6.63;100.00;99192.47;1617156;82;21061;-64
2021/04/14 02:40:48;;;;;;;85.22;51.10;;;;;;;6.63;100.00;99188.46;1735007;82;20892;-64
2021/04/14 02:43:16;;;;;;;74.30;47.15;;;;;;;6.62;100.00;99185.52;1735148;82;21010;-63
2021/04/14 02:45:44;;;;;;;81.53;50.00;;;;;;;6.61;100.00;99184.72;1735126;82;21383;-64
2021/04/14 02:48:11;;;;;;;83.70;51.27;;;;;;;6.59;100.00;99179.30;1735239;82;21046;-63
2021/04/14 02:50:40;;;;;;;84.92;48.68;;;;;;;6.56;100.00;99181.92;1735195;82;20931;-63
2021/04/14 02:53:09;;;;;;;78.80;48.42;;;;;;;6.54;100.00;99176.05;1735129;82;20943;-63
2021/04/14 02:55:38;;;;;;;78.12;49.73;;;;;;;6.52;100.00;99179.99;1735050;82;20915;-64
2021/04/14 02:58:05;;;;;;;79.45;47.23;;;;;;;6.48;100.00;99172.97;1734991;82;21379;-63
2021/04/14 03:00:33;;;;;;;75.47;46.98;;;;;;;6.46;100.00;99172.92;1735040;82;21042;-64
2021/04/14 03:03:04;;;;;;;80.15;49.00;;;;;;;6.43;100.00;99173.67;1722025;82;20983;-63
2021/04/14 03:05:33;;;;;;;75.50;47.48;;;;;;;6.42;100.00;99173.40;1716591;83;21055;-64
2021/04/14 03:08:03;;;;;;;86.75;49.50;;;;;;;6.39;100.00;99166.38;1692263;84;21015;-64
2021/04/14 03:10:32;;;;;;;88.30;51.75;;;;;;;6.38;100.00;99162.11;1668643;84;21043;-64
2021/04/14 03:13:03;;;;;;;83.37;51.58;;;;;;;6.37;100.00;99160.47;1691978;84;21185;-64
2021/04/14 03:15:37;;;;;;;82.17;51.28;;;;;;;6.36;100.00;99164.20;1691590;84;20995;-64
2021/04/14 03:18:09;;;;;;;76.67;47.25;;;;;;;6.36;100.00;99162.86;1691601;84;21141;-65
2021/04/14 03:20:37;;;;;;;73.47;46.10;;;;;;;6.35;100.00;99162.59;1703959;83;20936;-65
2021/04/14 03:23:05;;;;;;;82.70;51.45;;;;;;;6.35;100.00;99161.25;1739571;82;21634;-63
2021/04/14 03:25:33;;;;;;;78.33;47.78;;;;;;;6.34;100.00;99161.75;1739565;82;21012;-64
2021/04/14 03:28:03;;;;;;;82.37;50.25;;;;;;;6.36;100.00;99161.53;1739640;82;21030;-63
2021/04/14 03:30:31;;;;;;;90.12;54.77;;;;;;;6.35;100.00;99163.92;1739586;82;20940;-65
2021/04/14 03:32:59;;;;;;;86.30;54.25;;;;;;;6.34;100.00;99163.61;1746294;82;20870;-64
2021/04/14 03:35:28;;;;;;;85.10;50.43;;;;;;;6.34;100.00;99166.28;1749940;82;21379;-64
2021/04/14 03:37:56;;;;;;;83.97;49.45;;;;;;;6.35;100.00;99167.92;1749853;80;21387;-64
2021/04/14 03:40:24;;;;;;;80.85;49.25;;;;;;;6.34;100.00;99169.75;1749776;80;20972;-65
2021/04/14 03:42:54;;;;;;;71.53;46.18;;;;;;;6.34;100.00;99167.61;1749845;80;21052;-64
2021/04/14 03:45:35;;;;;;;80.80;50.28;;;;;;;6.32;100.00;99170.53;1749775;82;21004;-66
2021/04/14 03:47:58;;;;;;;83.72;49.23;;;;;;;6.32;100.00;99173.20;1698346;84;21479;-65
2021/04/14 03:50:27;;;;;;;80.65;49.85;;;;;;;6.31;100.00;99171.56;1698407;84;21096;-65
2021/04/14 03:52:55;;;;;;;73.37;48.78;;;;;;;6.33;100.00;99172.67;1698354;84;20984;-65
2021/04/14 03:55:23;;;;;;;78.70;51.23;;;;;;;6.33;100.00;99172.14;1698460;84;21012;-66
2021/04/14 03:57:51;;;;;;;70.45;46.55;;;;;;;6.33;100.00;99172.67;1698549;83;26438;-65
2021/04/14 04:00:21;;;;;;;77.97;48.45;;;;;;;6.31;100.00;99172.89;1675032;84;21402;-65
2021/04/14 04:02:48;;;;;;;89.20;55.50;;;;;;;6.33;100.00;99176.14;1704763;83;21118;-66
2021/04/14 04:05:16;;;;;;;79.22;50.63;;;;;;;6.31;100.00;99174.75;1711906;83;20905;-64
2021/04/14 04:07:44;;;;;;;85.77;53.25;;;;;;;6.30;100.00;99170.48;1688359;83;21003;-66
2021/04/14 04:10:14;;;;;;;83.75;51.13;;;;;;;6.30;100.00;99177.95;1711728;83;20991;-65
2021/04/14 04:12:42;;;;;;;80.50;49.85;;;;;;;6.29;100.00;99172.84;1751225;80;21408;-66
2021/04/14 04:15:13;;;;;;;80.77;50.20;;;;;;;6.27;100.00;99171.77;1782127;79;21026;-66
2021/04/14 04:17:41;;;;;;;88.70;53.87;;;;;;;6.27;100.00;99169.59;1750263;80;20924;-66
2021/04/14 04:20:12;;;;;;;87.67;54.40;;;;;;;6.26;100.00;99174.12;1782246;80;20868;-68
2021/04/14 04:22:40;;;;;;;83.92;51.02;;;;;;;6.23;100.00;99170.07;1782330;80;21414;-68
2021/04/14 04:25:10;;;;;;;90.10;55.55;;;;;;;6.26;100.00;99171.98;1782386;80;21213;-67
2021/04/14 04:27:38;;;;;;;83.05;53.95;;;;;;;6.26;100.00;99170.13;1782252;80;20885;-66
2021/04/14 04:30:09;;;;;;;86.05;52.15;;;;;;;6.28;100.00;99169.38;1782365;80;20995;-67
2021/04/14 04:32:36;;;;;;;81.22;52.93;;;;;;;6.29;100.00;99177.64;1782238;80;20923;-68
2021/04/14 04:35:07;;;;;;;87.35;51.85;;;;;;;6.29;100.00;99176.31;1750484;80;21497;-67
2021/04/14 04:37:35;;;;;;;78.83;49.98;;;;;;;6.31;100.00;99178.22;1782227;80;21367;-67
2021/04/14 04:40:05;;;;;;;;;;;;;;;6.33;100.00;99175.34;1784921;80;20944;-67
2021/04/14 04:42:33;;;;;;;83.00;51.37;;;;;;;6.33;100.00;99174.00;1782184;80;20135;-66
2021/04/14 04:45:07;;;;;;;79.60;49.00;;;;;;;6.32;100.00;99176.36;1782204;80;21059;-67
2021/04/14 04:47:35;;;;;;;78.55;48.40;;;;;;;6.33;100.00;99180.66;1782142;80;20972;-64
2021/04/14 04:50:05;;;;;;;72.17;49.05;;;;;;;6.34;100.00;99180.41;1782352;80;21258;-65
2021/04/14 04:52:33;;;;;;;79.30;47.58;;;;;;;6.34;100.00;99184.41;1782169;80;20943;-65
2021/04/14 04:55:01;;;;;;;81.17;51.42;;;;;;;6.34;100.00;99187.60;1782369;80;21059;-65
2021/04/14 04:57:31;;;;;;;77.70;50.45;;;;;;;6.33;100.00;99186.00;1782383;80;20916;-66
2021/04/14 04:59:59;;;;;;;80.25;52.03;;;;;;;6.33;100.00;99189.47;1782234;80;20869;-66
2021/04/14 05:02:28;;;;;;;85.80;53.80;;;;;;;6.33;100.00;99192.13;1780560;80;22014;-66
2021/04/14 05:04:56;;;;;;;85.50;51.28;;;;;;;6.35;100.00;99192.71;1774053;81;21007;-65
2021/04/14 05:07:24;;;;;;;92.82;55.92;;;;;;;6.38;100.00;99194.09;1774044;81;20995;-66
2021/04/14 05:09:52;;;;;;;82.57;51.53;;;;;;;6.39;100.00;99193.87;1774122;81;26558;-67
2021/04/14 05:12:20;;;;;;;73.30;49.63;;;;;;;6.42;100.00;99199.26;1774153;80;20921;-66
2021/04/14 05:14:49;;;;;;;79.37;49.88;;;;;;;6.44;100.00;99193.14;1774127;80;25097;-67
2021/04/14 05:17:17;;;;;;;84.90;54.90;;;;;;;6.47;100.00;99195.86;1774065;80;20920;-65
2021/04/14 05:19:46;;;;;;;80.42;49.18;;;;;;;6.48;100.00;99190.30;1773902;81;21003;-67
2021/04/14 05:22:14;;;;;;;86.87;52.70;;;;;;;6.51;100.00;99190.35;1750652;81;21000;-67
2021/04/14 05:24:43;;;;;;;74.95;49.42;;;;;;;6.51;100.00;99191.69;1774010;81;20999;-67
2021/04/14 05:27:11;;;;;;;74.62;50.03;;;;;;;6.55;100.00;99190.18;1774133;81;21206;-67
2021/04/14 05:29:39;;;;;;;76.25;47.45;;;;;;;6.58;100.00;99191.03;1774066;80;28143;-69
2021/04/14 05:32:09;;;;;;;78.60;46.35;;;;;;;6.58;100.00;99188.36;1750841;81;20924;-69
2021/04/14 05:34:39;;;;;;;75.87;46.75;;;;;;;6.59;100.00;99185.47;1773881;81;20941;-69
2021/04/14 05:37:09;;;;;;;71.28;48.20;;;;;;;6.60;100.00;99188.95;1750796;81;21413;-68
2021/04/14 05:39:37;;;;;;;66.92;43.52;;;;;;;6.64;100.00;99190.91;1773964;81;21330;-67
2021/04/14 05:42:07;;;;;;;66.60;44.85;;;;;;;6.69;100.00;99189.36;1773992;81;21015;-68
2021/04/14 05:44:36;;;;;;;69.97;46.28;;;;;;;6.71;100.00;99196.08;1773923;81;20936;-67
2021/04/14 05:47:04;;;;;;;69.35;43.83;;;;;;;6.75;100.00;99188.43;1686666;85;21050;-67
2021/04/14 05:49:33;;;;;;;78.33;48.23;;;;;;;6.76;100.00;99194.88;1686824;85;21026;-67
2021/04/14 05:52:02;;;;;;;73.83;46.37;;;;;;;6.77;100.00;99192.48;1686761;85;21474;-66
2021/04/14 05:54:30;;;;;;;68.28;41.77;;;;;;;6.79;100.00;99191.72;1684451;85;21113;-65
2021/04/14 05:56:59;;;;;;;65.08;45.28;;;;;;;6.80;100.00;99189.33;1670265;83;26324;-65
2021/04/14 05:59:26;;;;;;;66.37;44.70;;;;;;;6.82;100.00;99190.44;1720029;83;21157;-65
2021/04/14 06:01:55;;;;;;;71.40;45.85;;;;;;;6.83;100.00;99192.05;1719937;83;21180;-66
2021/04/14 06:04:24;;;;;;;62.83;41.85;;;;;;;6.85;100.00;99197.95;1734924;78;21508;-68
2021/04/14 06:06:54;;;;;;;66.28;40.85;;;;;;;6.89;100.00;99199.11;1819180;78;21046;-66
2021/04/14 06:09:22;;;;;;;64.05;41.58;;;;;;;6.91;100.00;99197.52;1819243;78;21141;-66
2021/04/14 06:11:53;;;;;;;66.95;45.38;;;;;;;6.94;100.00;99197.88;1819126;78;21184;-65
2021/04/14 06:14:24;;;;;;;75.08;48.05;;;;;;;6.97;100.00;99197.91;1819206;78;21086;-65
2021/04/14 06:20:43;;;;;;;67.95;41.45;;;;;;;7.06;100.00;99202.63;1734126;82;21572;-65
2021/04/14 06:26:00;;;;;;;66.33;44.08;;;;;;;7.20;100.00;99197.81;1836569;78;22272;-64
2021/04/14 06:28:25;;;;;;;67.72;43.48;;;;;;;7.19;100.00;99200.19;1803681;79;21007;-64
2021/04/14 06:30:53;;;;;;;63.55;42.60;;;;;;;7.25;100.00;99199.73;1808979;78;21313;-64
2021/04/14 06:33:22;;;;;;;;;;;;;;;7.30;100.00;99201.19;1811514;78;20912;-64
2021/04/14 06:35:55;;;;;;;66.35;43.08;;;;;;;7.33;100.00;99200.70;1779441;79;20119;-65
2021/04/14 06:38:26;;;;;;;55.95;40.05;;;;;;;7.37;100.00;99200.48;1776835;80;20983;-65
2021/04/14 06:45:07;;;;;;;60.52;39.53;;;;;;;7.41;100.00;99206.97;1682183;84;21225;-64
2021/04/14 06:47:49;;;;;;;60.67;42.20;;;;;;;7.37;100.00;99205.83;1740148;81;21072;-63
2021/04/14 06:50:37;;;;;;;59.80;42.70;;;;;;;7.39;100.00;99210.94;1704398;84;21011;-64
2021/04/14 06:53:17;;;;;;;61.85;43.20;;;;;;;7.38;100.00;99204.79;1740255;82;21692;-64
2021/04/14 06:55:49;;;;;;;54.90;38.78;;;;;;;7.39;100.00;99209.06;1682719;85;21192;-66
2021/04/14 06:58:43;;;;;;;56.83;38.20;;;;;;;7.47;100.00;99208.69;1841526;78;22712;-64
2021/04/14 07:01:17;;;;;;;55.70;35.05;;;;;;;7.42;100.00;99209.11;1816931;79;20908;-65
2021/04/14 07:04:18;;;;;;;55.95;35.88;;;;;;;7.41;100.00;99206.97;1758620;79;21362;-65
2021/04/14 07:06:47;;;;;;;53.50;35.48;;;;;;;7.42;100.00;99197.92;1816853;79;20979;-64
2021/04/14 07:09:40;;;;;;;52.25;35.75;;;;;;;7.48;100.00;99202.28;1758279;79;20987;-64
2021/04/14 07:12:19;;;;;;;82.10;48.48;;;;;;;7.55;100.00;99206.67;1816675;79;21011;-64
2021/04/14 07:14:50;;;;;;;56.70;37.48;;;;;;;7.60;100.00;99206.76;1786034;79;20972;-64
2021/04/14 07:17:49;;;;;;;53.58;34.83;;;;;;;7.62;100.00;99204.12;1808162;79;22190;-66
2021/04/14 07:20:37;;;;;;;54.65;37.48;;;;;;;7.65;100.00;99202.30;1807840;79;21214;-65
2021/04/14 07:23:35;;;;;;;55.88;38.28;;;;;;;7.76;100.00;99206.45;1808117;79;21047;-64
2021/04/14 07:26:20;;;;;;;54.13;37.23;;;;;;;7.87;100.00;99206.38;1808007;79;21180;-64
2021/04/14 07:29:30;;;;;;;46.18;30.80;;;;;;;7.96;100.00;99208.09;1775962;80;21119;-65
2021/04/14 07:32:29;;;;;;;49.35;31.55;;;;;;;7.95;100.00;99210.49;1776164;80;21259;-64
2021/04/14 07:38:35;;;;;;;45.60;32.30;;;;;;;7.85;100.00;99215.69;1875614;76;22781;-65
2021/04/14 07:41:50;;;;;;;50.67;30.95;;;;;;;7.83;100.00;99216.45;1748484;80;21026;-66
2021/04/14 07:44:42;;;;;;;44.60;33.28;;;;;;;7.86;100.00;99222.64;1710396;83;21390;-64
2021/04/14 07:47:19;;;;;;;48.83;32.23;;;;;;;7.89;100.00;99222.17;1841428;78;22656;-65
2021/04/14 07:49:47;;;;;;;43.92;29.00;;;;;;;7.80;100.00;99223.63;1817017;78;20960;-62
2021/04/14 07:52:24;;;;;;;49.23;29.52;;;;;;;7.76;100.00;99219.81;1816950;79;22334;-63
2021/04/14 07:54:55;;;;;;;;;;;;;;;7.69;100.00;99215.46;1819551;78;20991;-63
2021/04/14 07:57:34;;;;;;;49.53;32.78;;;;;;;7.61;100.00;99217.18;1816934;79;20105;-63
2021/04/14 08:00:26;;;;;;;46.77;33.63;;;;;;;7.57;100.00;99225.41;1816873;79;21003;-64
2021/04/14 08:02:54;;;;;;;52.15;36.42;;;;;;;7.53;100.00;99229.61;1736474;81;20956;-64
2021/04/14 08:05:30;;;;;;;45.65;34.50;;;;;;;7.45;100.00;99232.69;1737300;81;22779;-66
2021/04/14 08:07:57;;;;;;;44.35;30.45;;;;;;;7.45;100.00;99232.69;1707614;83;21281;-66
2021/04/14 08:10:28;;;;;;;47.13;35.40;;;;;;;7.45;100.00;99221.47;1707800;83;20960;-65
2021/04/14 08:13:07;;;;;;;53.33;36.50;;;;;;;7.44;100.00;99223.03;1707896;82;21414;-66
2021/04/14 08:15:44;;;;;;;60.40;39.90;;;;;;;7.47;100.00;99218.54;1706779;83;21482;-66
2021/04/14 08:18:31;;;;;;;58.50;38.37;;;;;;;7.46;100.00;99223.61;1706644;83;21862;-67
2021/04/14 08:21:17;;;;;;;70.87;44.90;;;;;;;7.50;100.00;99218.88;1771305;81;22666;-67
2021/04/14 08:23:56;;;;;;;;;;;;;;;7.49;100.00;99215.91;1739046;82;20937;-67
2021/04/14 08:26:26;;;;;;;67.10;43.92;;;;;;;7.54;100.00;99215.72;1738114;82;21379;-66
2021/04/14 08:28:55;;;;;;;50.03;32.00;;;;;;;7.64;100.00;99209.20;1713975;82;21004;-67
2021/04/14 08:31:46;;;;;;;63.30;41.63;;;;;;;7.69;100.00;99203.94;1738099;82;21052;-67
2021/04/14 08:34:35;;;;;;;58.40;39.10;;;;;;;7.67;100.00;99210.08;1722300;81;21033;-65
2021/04/14 08:37:10;;;;;;;48.80;31.23;;;;;;;7.77;100.00;99208.09;1705440;82;21001;-65
2021/04/14 08:39:52;;;;;;;38.65;27.75;;;;;;;7.75;100.00;99201.64;1738464;82;21135;-67
2021/04/14 08:42:33;;;;;;;37.70;27.22;;;;;;;7.75;100.00;99203.52;1738448;82;21035;-65
2021/04/14 08:45:12;;;;;;;47.98;31.87;;;;;;;7.78;100.00;99208.36;1737976;82;20925;-65
2021/04/14 08:47:51;;;;;;;44.75;30.85;;;;;;;7.83;100.00;99201.23;1738413;82;20928;-63
2021/04/14 08:50:30;;;;;;;;;;;;;;;7.87;100.00;99204.23;1740877;82;21489;-65
2021/04/14 08:53:01;;;;;;;39.13;29.25;;;;;;;7.86;100.00;99198.59;1738460;82;21946;-66
2021/04/14 08:55:29;;;;;;;35.55;27.73;;;;;;;8.11;100.00;99200.84;1738490;82;20913;-63
2021/04/14 08:57:58;;;;;;;40.98;29.98;;;;;;;8.30;100.00;99191.99;1736941;80;21445;-64
2021/04/14 09:00:27;;;;;;;38.38;29.00;;;;;;;8.29;100.00;99185.84;1760141;79;21013;-65
2021/04/14 09:03:02;;;;;;;39.98;29.72;;;;;;;8.30;100.00;99186.11;1752664;81;21544;-66
2021/04/14 09:05:30;;;;;;;37.63;29.07;;;;;;;8.34;100.00;99191.25;1752780;81;21368;-66
2021/04/14 09:07:59;;;;;;;44.95;30.68;;;;;;;8.34;100.00;99185.91;1752819;81;20905;-64
2021/04/14 09:10:37;;;;;;;;;;;;;;;8.36;100.00;99187.81;1700839;81;20926;-66
2021/04/14 09:13:38;;;;;;;43.28;28.42;;;;;;;8.47;100.00;99186.09;1762620;80;20140;-66
2021/04/14 09:16:39;;;;;;;48.80;33.13;;;;;;;8.47;100.00;99186.63;1683160;85;21074;-65
2021/04/14 09:19:44;;;;;;;45.67;32.53;;;;;;;8.52;100.00;99188.02;1682381;84;21378;-65
2021/04/14 09:25:51;;;;;;;48.17;35.23;;;;;;;8.59;100.00;99175.27;1779091;79;27582;-66
2021/04/14 09:28:34;;;;;;;49.35;31.50;;;;;;;8.65;100.00;99174.79;1746858;81;21090;-65
2021/04/14 09:31:15;;;;;;;44.00;31.00;;;;;;;8.69;100.00;99175.38;1753772;81;21794;-66
2021/04/14 09:33:48;;;;;;;48.85;31.05;;;;;;;8.66;100.00;99171.88;1658032;86;20995;-65
2021/04/14 09:36:30;;;;;;;48.10;31.50;;;;;;;8.65;100.00;99174.79;1670011;86;21088;-66
2021/04/14 09:39:31;;;;;;;48.42;34.63;;;;;;;8.65;100.00;99178.30;1649472;85;21516;-67
2021/04/14 09:41:59;;;;;;;41.25;31.45;;;;;;;8.61;100.00;99178.51;1615537;88;21104;-67
2021/04/14 09:44:44;;;;;;;45.78;32.55;;;;;;;8.59;100.00;99172.59;1615527;88;21232;-67
2021/04/14 09:47:33;;;;;;;43.50;32.40;;;;;;;8.56;100.00;99172.56;1615472;87;20966;-66
2021/04/14 09:50:33;;;;;;;45.12;30.05;;;;;;;8.48;100.00;99177.56;1615813;88;21584;-67
2021/04/14 09:53:25;;;;;;;38.05;27.58;;;;;;;8.44;100.00;99177.77;1615248;88;21109;-67
2021/04/14 09:59:44;;;;;;;53.68;36.25;;;;;;;8.37;100.00;99178.72;1709289;82;20968;-66
2021/04/14 10:02:24;;;;;;;42.30;29.67;;;;;;;8.38;100.00;99176.88;1841883;77;22844;-66
2021/04/14 10:04:52;;;;;;;41.65;28.42;;;;;;;8.31;100.00;99175.71;1813457;79;20974;-64
2021/04/14 10:07:32;;;;;;;40.33;30.60;;;;;;;8.02;100.00;99176.39;1753413;80;21388;-67
2021/04/14 10:10:39;;;;;;;38.65;26.95;;;;;;;7.91;100.00;99179.45;1755277;80;21011;-67
2021/04/14 10:13:10;;;;;;;36.40;22.80;;;;;;;7.90;100.00;99169.80;1642616;87;21015;-65
2021/04/14 10:15:42;;;;;;;44.58;31.93;;;;;;;7.81;100.00;99161.91;1662360;85;21002;-65
2021/04/14 10:18:50;;;;;;;44.23;27.60;;;;;;;7.69;100.00;99163.87;1672498;85;21070;-65
2021/04/14 10:21:31;;;;;;;39.00;27.82;;;;;;;7.59;100.00;99167.73;1839316;77;22163;-66
2021/04/14 10:24:04;;;;;;;47.25;33.88;;;;;;;7.48;100.00;99165.44;1784678;80;21154;-66
2021/04/14 10:26:36;;;;;;;51.23;32.98;;;;;;;7.45;100.00;99172.60;1784251;80;21283;-66
2021/04/14 10:29:08;;;;;;;52.88;35.08;;;;;;;7.44;100.00;99174.97;1784357;78;21013;-65
2021/04/14 10:31:37;;;;;;;56.10;36.20;;;;;;;7.42;100.00;99169.89;1784122;80;20993;-65
2021/04/14 10:34:12;;;;;;;48.83;34.88;;;;;;;7.39;100.00;99177.03;1784179;79;21011;-66
2021/04/14 10:36:43;;;;;;;47.98;33.25;;;;;;;7.37;100.00;99175.65;1784342;80;21022;-65
2021/04/14 10:39:19;;;;;;;57.25;37.00;;;;;;;7.34;100.00;99176.94;1784320;80;21197;-65
2021/04/14 10:41:47;;;;;;;45.70;30.35;;;;;;;7.33;100.00;99182.02;1784727;80;20970;-66
2021/04/14 10:44:19;;;;;;;53.63;34.88;;;;;;;7.34;100.00;99182.81;1785201;79;21438;-65
2021/04/14 10:46:47;;;;;;;47.03;30.55;;;;;;;7.34;100.00;99188.95;1771900;79;21274;-67
2021/04/14 10:49:26;;;;;;;57.90;35.03;;;;;;;7.33;100.00;99184.69;1817751;79;20986;-66
2021/04/14 10:51:55;;;;;;;;;;;;;;;7.32;100.00;99189.72;1820297;79;21192;-66
2021/04/14 10:54:31;;;;;;;46.45;31.25;;;;;;;7.33;100.00;99192.69;1817543;79;20133;-67
2021/04/14 10:57:06;;;;;;;44.88;30.48;;;;;;;7.30;100.00;99190.52;1801772;78;21432;-65
2021/04/14 10:59:34;;;;;;;56.28;35.78;;;;;;;7.29;100.00;99188.88;1705374;83;21023;-64
2021/04/14 11:02:14;;;;;;;62.88;37.85;;;;;;;7.28;100.00;99189.94;1673631;85;21003;-63
2021/04/14 11:04:42;;;;;;;51.30;32.28;;;;;;;7.32;100.00;99185.72;1705710;84;22093;-65
2021/04/14 11:07:19;;;;;;;55.10;38.30;;;;;;;7.32;100.00;99184.38;1673589;85;21043;-66
2021/04/14 11:09:53;;;;;;;52.60;33.25;;;;;;;7.32;100.00;99188.38;1705450;82;21619;-65
2021/04/14 11:12:25;;;;;;;59.83;35.52;;;;;;;7.33;100.00;99187.88;1673625;85;21563;-65
2021/04/14 11:14:56;;;;;;;58.25;36.23;;;;;;;7.32;100.00;99187.05;1710819;83;20932;-65
2021/04/14 11:17:30;;;;;;;60.85;35.90;;;;;;;7.32;100.00;99181.71;1720522;81;21721;-65
2021/04/14 11:20:12;;;;;;;64.00;40.38;;;;;;;7.36;100.00;99180.19;1842420;78;22318;-63
2021/04/14 11:22:49;;;;;;;52.78;35.33;;;;;;;7.35;100.00;99185.26;1734797;81;21023;-64
2021/04/14 11:25:32;;;;;;;49.93;33.50;;;;;;;7.42;100.00;99184.58;1837402;78;22771;-65
2021/04/14 11:28:12;;;;;;;49.27;33.63;;;;;;;7.40;100.00;99185.84;1782359;80;21008;-66
2021/04/14 11:30:56;;;;;;;58.40;35.92;;;;;;;7.45;100.00;99186.75;1842401;77;22778;-64
2021/04/14 11:33:44;;;;;;;53.78;35.83;;;;;;;7.40;100.00;99181.33;1816185;79;20900;-64
2021/04/14 11:36:33;;;;;;;53.85;35.50;;;;;;;7.44;100.00;99181.64;1804261;79;21181;-65
2021/04/14 11:39:08;;;;;;;;;;;;;;;7.49;100.00;99178.52;1806785;79;20956;-63
2021/04/14 11:41:41;;;;;;;52.13;35.68;;;;;;;7.51;100.00;99177.76;1804850;77;20145;-63
2021/04/14 11:44:28;;;;;;;51.15;36.80;;;;;;;7.54;100.00;99177.80;1804143;79;21050;-63
2021/04/14 11:47:00;;;;;;;56.33;39.10;;;;;;;7.57;100.00;99167.16;1802743;79;20905;-64
2021/04/14 11:49:33;;;;;;;55.43;35.08;;;;;;;7.59;100.00;99169.86;1801690;79;21168;-64
2021/04/14 11:52:15;;;;;;;59.95;36.00;;;;;;;7.63;100.00;99161.66;1804092;79;20964;-64
2021/04/14 11:54:43;;;;;;;53.90;37.83;;;;;;;7.67;100.00;99164.67;1772058;79;20970;-63
2021/04/14 11:57:21;;;;;;;55.75;38.53;;;;;;;7.69;100.00;99166.04;1771983;81;20986;-64
2021/04/14 12:00:11;;;;;;;65.10;42.35;;;;;;;7.74;100.00;99162.61;1771643;79;20966;-64
2021/04/14 12:02:38;;;;;;;63.05;42.70;;;;;;;7.77;100.00;99158.67;1772030;79;21198;-64
2021/04/14 12:05:11;;;;;;;58.70;42.75;;;;;;;7.84;100.00;99157.44;1771964;79;21464;-64
2021/04/14 12:07:39;;;;;;;60.08;43.02;;;;;;;7.90;100.00;99156.97;1772062;81;20947;-66
2021/04/14 12:10:09;;;;;;;65.90;46.53;;;;;;;7.97;100.00;99159.48;1772024;79;21479;-65